Aviation Digital Data Service (ADDS)

Output produced by METARs form (0412 UTC 26 June 2019)
found at http://www.aviationweather.gov/metar/data/
 
Forecast for: HLKF (KUFRA (MIL/CIV) , LY)
Text: TAF HLKF 252300Z 2600/2624 VRB02KT CAVOK
Forecast period: 0000 UTC 26 June 2019 to 0000 UTC 27 June 2019
Forecast type: FROM: standard forecast or significant change
Winds: variable direction winds at 2 MPH (2 knots; 1.0 m/s)
Visibility: 6 or more miles 10+ km)
Ceiling: unknown
Clouds: missing
Weather: NSW  (no significant weather)